EJU64LX LICC-LIRN
Flight info
| Callsign | EJU64LX |
|---|---|
| Flight time | 0h 57m |
| Altitude | 34000 |
| Route | BUDIN DCT DIRED DCT NAXES/N0342F180 T92 SOR |
| Aircraft | A320/M-SDE2E3FGHIJ1RWXYZ/LB1 |
Departure
| Time | 2026-05-04 19:52 |
|---|---|
| Airport | Catania-Fontanarossa Airport (LICC) |
Arrival
| Time | 2026-05-04 20:50 |
|---|---|
| Airport | Naples International Airport (LIRN) |
| Time | Latitude | Longitude | Altitude | Speed | Heading |
|---|---|---|---|---|---|
| 2026-05-04 18:57 | 37.46921 | 15.06682 | 26 ft | 0 kts | 353° |
| 2026-05-04 19:45 | 37.46919 | 15.06683 | 27 ft | 2 kts | 354° |
| 2026-05-04 19:45 | 37.46893 | 15.06683 | 27 ft | 4 kts | 9° |
| 2026-05-04 19:46 | 37.46868 | 15.06674 | 28 ft | 4 kts | 30° |
| 2026-05-04 19:46 | 37.46849 | 15.06655 | 28 ft | 4 kts | 62° |
| 2026-05-04 19:46 | 37.46844 | 15.06639 | 28 ft | 0 kts | 84° |
| 2026-05-04 19:48 | 37.46844 | 15.06642 | 28 ft | 1 kts | 84° |
| 2026-05-04 19:48 | 37.46847 | 15.06672 | 28 ft | 6 kts | 84° |
| 2026-05-04 19:49 | 37.46853 | 15.06748 | 27 ft | 12 kts | 84° |
| 2026-05-04 19:49 | 37.46864 | 15.06876 | 25 ft | 12 kts | 83° |
| 2026-05-04 19:49 | 37.46875 | 15.06998 | 26 ft | 16 kts | 84° |
| 2026-05-04 19:49 | 37.46885 | 15.07115 | 28 ft | 14 kts | 84° |
| 2026-05-04 19:50 | 37.46897 | 15.07260 | 29 ft | 18 kts | 83° |
| 2026-05-04 19:50 | 37.46911 | 15.07428 | 27 ft | 21 kts | 84° |
| 2026-05-04 19:50 | 37.46927 | 15.07632 | 27 ft | 25 kts | 84° |
| 2026-05-04 19:50 | 37.46945 | 15.07828 | 22 ft | 22 kts | 83° |
| 2026-05-04 19:51 | 37.46959 | 15.08004 | 19 ft | 14 kts | 84° |
| 2026-05-04 19:51 | 37.46891 | 15.08086 | 18 ft | 17 kts | 174° |
| 2026-05-04 19:51 | 37.46794 | 15.08011 | 19 ft | 18 kts | 269° |
| 2026-05-04 19:51 | 37.46782 | 15.07877 | 21 ft | 17 kts | 264° |
| 2026-05-04 19:52 | 37.46761 | 15.07609 | 24 ft | 66 kts | 264° |
| 2026-05-04 19:52 | 37.46682 | 15.06681 | 31 ft | 143 kts | 264° |
| 2026-05-04 19:52 | 37.46588 | 15.05349 | 775 ft | 151 kts | 266° |
| 2026-05-04 19:52 | 37.46509 | 15.04046 | 1595 ft | 147 kts | 265° |
| 2026-05-04 19:53 | 37.46408 | 15.02817 | 2167 ft | 144 kts | 265° |
| 2026-05-04 19:53 | 37.46288 | 15.01460 | 2363 ft | 168 kts | 264° |
| 2026-05-04 19:53 | 37.46148 | 14.99864 | 2371 ft | 206 kts | 264° |
| 2026-05-04 19:53 | 37.45981 | 14.97963 | 2790 ft | 229 kts | 264° |
| 2026-05-04 19:54 | 37.45803 | 14.95933 | 3797 ft | 238 kts | 263° |
| 2026-05-04 19:54 | 37.45619 | 14.93841 | 4725 ft | 244 kts | 263° |
| 2026-05-04 19:54 | 37.45431 | 14.91690 | 5509 ft | 249 kts | 263° |
| 2026-05-04 19:54 | 37.45241 | 14.89513 | 6351 ft | 251 kts | 264° |
| 2026-05-04 19:55 | 37.45050 | 14.87319 | 7186 ft | 253 kts | 264° |
| 2026-05-04 19:55 | 37.44857 | 14.85099 | 7994 ft | 256 kts | 265° |
| 2026-05-04 19:55 | 37.44661 | 14.82858 | 8804 ft | 259 kts | 265° |
| 2026-05-04 19:55 | 37.44464 | 14.80604 | 9646 ft | 261 kts | 267° |
| 2026-05-04 19:56 | 37.44651 | 14.78343 | 10402 ft | 261 kts | 292° |
| 2026-05-04 19:56 | 37.45634 | 14.76447 | 11127 ft | 262 kts | 319° |
| 2026-05-04 19:56 | 37.47219 | 14.75337 | 11866 ft | 265 kts | 345° |
| 2026-05-04 19:56 | 37.49058 | 14.75011 | 12616 ft | 269 kts | 352° |
| 2026-05-04 19:57 | 37.50928 | 14.74768 | 13361 ft | 272 kts | 352° |
| 2026-05-04 19:57 | 37.52819 | 14.74526 | 14096 ft | 274 kts | 351° |
| 2026-05-04 19:57 | 37.54731 | 14.74277 | 14707 ft | 280 kts | 351° |
| 2026-05-04 19:57 | 37.56747 | 14.74004 | 14872 ft | 303 kts | 351° |
| 2026-05-04 19:58 | 37.58924 | 14.73702 | 15041 ft | 324 kts | 351° |
| 2026-05-04 19:58 | 37.61196 | 14.73389 | 15538 ft | 331 kts | 351° |
| 2026-05-04 19:58 | 37.63498 | 14.73080 | 16169 ft | 335 kts | 351° |
| 2026-05-04 19:58 | 37.65830 | 14.72769 | 16821 ft | 338 kts | 351° |
| 2026-05-04 19:59 | 37.68179 | 14.72456 | 17462 ft | 342 kts | 351° |
| 2026-05-04 19:59 | 37.70559 | 14.72138 | 18107 ft | 345 kts | 351° |
| 2026-05-04 19:59 | 37.72956 | 14.71815 | 18715 ft | 348 kts | 351° |
| 2026-05-04 19:59 | 37.75367 | 14.71490 | 19277 ft | 350 kts | 351° |
| 2026-05-04 20:00 | 37.77796 | 14.71161 | 19814 ft | 353 kts | 351° |
| 2026-05-04 20:00 | 37.80244 | 14.70827 | 20392 ft | 355 kts | 351° |
| 2026-05-04 20:00 | 37.82709 | 14.70490 | 20970 ft | 357 kts | 351° |
| 2026-05-04 20:00 | 37.85185 | 14.70151 | 21534 ft | 359 kts | 351° |
| 2026-05-04 20:01 | 37.87678 | 14.69811 | 22096 ft | 362 kts | 350° |
| 2026-05-04 20:01 | 37.90192 | 14.69502 | 22647 ft | 366 kts | 354° |
| 2026-05-04 20:01 | 37.92759 | 14.69677 | 23202 ft | 373 kts | 5° |
| 2026-05-04 20:01 | 37.95294 | 14.70504 | 23743 ft | 382 kts | 16° |
| 2026-05-04 20:02 | 37.97710 | 14.71983 | 24232 ft | 389 kts | 25° |
| 2026-05-04 20:02 | 38.00070 | 14.73681 | 24722 ft | 392 kts | 25° |
| 2026-05-04 20:02 | 38.02446 | 14.75389 | 25189 ft | 394 kts | 25° |
| 2026-05-04 20:02 | 38.04842 | 14.77108 | 25651 ft | 396 kts | 25° |
| 2026-05-04 20:03 | 38.07249 | 14.78834 | 26093 ft | 399 kts | 25° |
| 2026-05-04 20:03 | 38.09672 | 14.80574 | 26566 ft | 401 kts | 24° |
| 2026-05-04 20:03 | 38.12104 | 14.82322 | 26977 ft | 404 kts | 24° |
| 2026-05-04 20:03 | 38.14559 | 14.84084 | 27403 ft | 406 kts | 24° |
| 2026-05-04 20:04 | 38.17028 | 14.85858 | 27819 ft | 409 kts | 24° |
| 2026-05-04 20:04 | 38.19506 | 14.87641 | 28218 ft | 411 kts | 24° |
| 2026-05-04 20:04 | 38.22003 | 14.89440 | 28593 ft | 414 kts | 24° |
| 2026-05-04 20:04 | 38.24515 | 14.91253 | 28966 ft | 416 kts | 24° |
| 2026-05-04 20:05 | 38.27044 | 14.93079 | 29346 ft | 419 kts | 24° |
| 2026-05-04 20:05 | 38.29583 | 14.94915 | 29717 ft | 421 kts | 24° |
| 2026-05-04 20:05 | 38.32132 | 14.96758 | 30080 ft | 423 kts | 24° |
| 2026-05-04 20:05 | 38.34701 | 14.98613 | 30391 ft | 425 kts | 24° |
| 2026-05-04 20:06 | 38.37277 | 15.00473 | 30689 ft | 427 kts | 24° |
| 2026-05-04 20:06 | 38.39867 | 15.02343 | 31013 ft | 428 kts | 24° |
| 2026-05-04 20:06 | 38.42463 | 15.04204 | 31330 ft | 428 kts | 21° |
| 2026-05-04 20:06 | 38.45201 | 15.05552 | 31702 ft | 416 kts | 7° |
| 2026-05-04 20:07 | 38.48027 | 15.05987 | 32070 ft | 406 kts | 355° |
| 2026-05-04 20:07 | 38.50825 | 15.05711 | 32452 ft | 400 kts | 346° |
| 2026-05-04 20:07 | 38.53511 | 15.04894 | 32839 ft | 394 kts | 338° |
| 2026-05-04 20:07 | 38.56066 | 15.03661 | 33226 ft | 392 kts | 334° |
| 2026-05-04 20:08 | 38.58598 | 15.02388 | 33618 ft | 390 kts | 334° |
| 2026-05-04 20:08 | 38.61119 | 15.01113 | 34024 ft | 389 kts | 334° |
| 2026-05-04 20:08 | 38.63626 | 14.99837 | 34131 ft | 385 kts | 334° |
| 2026-05-04 20:08 | 38.66064 | 14.98598 | 34143 ft | 369 kts | 334° |
| 2026-05-04 20:09 | 38.68409 | 14.97404 | 34145 ft | 358 kts | 334° |
| 2026-05-04 20:09 | 38.72966 | 14.95062 | 34146 ft | 349 kts | 334° |
| 2026-05-04 20:10 | 38.77447 | 14.92746 | 34151 ft | 346 kts | 333° |
| 2026-05-04 20:10 | 38.81951 | 14.90420 | 34147 ft | 351 kts | 333° |
| 2026-05-04 20:11 | 38.86494 | 14.88072 | 34152 ft | 352 kts | 333° |
| 2026-05-04 20:11 | 38.91061 | 14.85711 | 34153 ft | 352 kts | 333° |
| 2026-05-04 20:12 | 38.95572 | 14.83383 | 34153 ft | 351 kts | 333° |
| 2026-05-04 20:12 | 39.00095 | 14.81042 | 34152 ft | 350 kts | 333° |
| 2026-05-04 20:13 | 39.04612 | 14.78698 | 34152 ft | 350 kts | 333° |
| 2026-05-04 20:13 | 39.09152 | 14.76339 | 34168 ft | 350 kts | 333° |
| 2026-05-04 20:14 | 39.13655 | 14.73992 | 34152 ft | 349 kts | 333° |
| 2026-05-04 20:14 | 39.18156 | 14.71651 | 34152 ft | 349 kts | 333° |
| 2026-05-04 20:15 | 39.22656 | 14.69303 | 34150 ft | 349 kts | 333° |
| 2026-05-04 20:15 | 39.27149 | 14.66959 | 34152 ft | 349 kts | 333° |
| 2026-05-04 20:16 | 39.31652 | 14.64603 | 34154 ft | 349 kts | 333° |
| 2026-05-04 20:16 | 39.36144 | 14.62254 | 34152 ft | 348 kts | 333° |
| 2026-05-04 20:17 | 39.40623 | 14.59898 | 34151 ft | 348 kts | 333° |
| 2026-05-04 20:17 | 39.45111 | 14.57538 | 34149 ft | 348 kts | 333° |
| 2026-05-04 20:18 | 39.49592 | 14.55182 | 34152 ft | 348 kts | 333° |
| 2026-05-04 20:18 | 39.54073 | 14.52819 | 34152 ft | 348 kts | 333° |
| 2026-05-04 20:19 | 39.58764 | 14.51158 | 34154 ft | 354 kts | 346° |
| 2026-05-04 20:19 | 39.63653 | 14.50318 | 34151 ft | 354 kts | 346° |
| 2026-05-04 20:20 | 39.68515 | 14.49476 | 33636 ft | 351 kts | 346° |
| 2026-05-04 20:20 | 39.70924 | 14.49058 | 33222 ft | 348 kts | 346° |
| 2026-05-04 20:20 | 39.73316 | 14.48639 | 32811 ft | 346 kts | 346° |
| 2026-05-04 20:20 | 39.75691 | 14.48218 | 32414 ft | 343 kts | 346° |
| 2026-05-04 20:21 | 39.78052 | 14.47799 | 32027 ft | 341 kts | 346° |
| 2026-05-04 20:21 | 39.80396 | 14.47383 | 31630 ft | 340 kts | 346° |
| 2026-05-04 20:21 | 39.85051 | 14.46560 | 30873 ft | 336 kts | 346° |
| 2026-05-04 20:22 | 39.87358 | 14.46152 | 30488 ft | 334 kts | 346° |
| 2026-05-04 20:22 | 39.89657 | 14.45745 | 30113 ft | 332 kts | 346° |
| 2026-05-04 20:22 | 39.91938 | 14.45342 | 29681 ft | 330 kts | 346° |
| 2026-05-04 20:22 | 39.94208 | 14.44940 | 29276 ft | 328 kts | 346° |
| 2026-05-04 20:23 | 39.96460 | 14.44541 | 28869 ft | 326 kts | 346° |
| 2026-05-04 20:23 | 39.98701 | 14.44142 | 28473 ft | 323 kts | 346° |
| 2026-05-04 20:23 | 40.00916 | 14.43747 | 28102 ft | 321 kts | 346° |
| 2026-05-04 20:23 | 40.03125 | 14.43355 | 27722 ft | 319 kts | 346° |
| 2026-05-04 20:24 | 40.05311 | 14.42969 | 27347 ft | 316 kts | 347° |
| 2026-05-04 20:24 | 40.07482 | 14.42587 | 26968 ft | 314 kts | 347° |
| 2026-05-04 20:24 | 40.08916 | 14.42333 | 26712 ft | 313 kts | 347° |
| 2026-05-04 20:24 | 40.11072 | 14.41948 | 26351 ft | 311 kts | 347° |
| 2026-05-04 20:25 | 40.13238 | 14.41559 | 25985 ft | 310 kts | 347° |
| 2026-05-04 20:25 | 40.15342 | 14.41183 | 25612 ft | 308 kts | 347° |
| 2026-05-04 20:25 | 40.17485 | 14.40802 | 25259 ft | 306 kts | 347° |
| 2026-05-04 20:25 | 40.19564 | 14.40433 | 24907 ft | 305 kts | 348° |
| 2026-05-04 20:26 | 40.21688 | 14.40054 | 24556 ft | 303 kts | 348° |
| 2026-05-04 20:26 | 40.23751 | 14.39687 | 24219 ft | 302 kts | 348° |
| 2026-05-04 20:26 | 40.25833 | 14.39314 | 23841 ft | 302 kts | 348° |
| 2026-05-04 20:26 | 40.27943 | 14.38937 | 23449 ft | 301 kts | 348° |
| 2026-05-04 20:27 | 40.30017 | 14.38569 | 23065 ft | 300 kts | 348° |
| 2026-05-04 20:27 | 40.32050 | 14.38209 | 22695 ft | 298 kts | 348° |
| 2026-05-04 20:27 | 40.34117 | 14.37841 | 22346 ft | 295 kts | 348° |
| 2026-05-04 20:27 | 40.36150 | 14.37476 | 21987 ft | 294 kts | 348° |
| 2026-05-04 20:28 | 40.38143 | 14.37119 | 21639 ft | 292 kts | 348° |
| 2026-05-04 20:28 | 40.40174 | 14.36757 | 21294 ft | 290 kts | 348° |
| 2026-05-04 20:28 | 40.42164 | 14.36399 | 20963 ft | 288 kts | 348° |
| 2026-05-04 20:28 | 40.44144 | 14.36042 | 20634 ft | 286 kts | 348° |
| 2026-05-04 20:29 | 40.46111 | 14.35690 | 20313 ft | 285 kts | 348° |
| 2026-05-04 20:29 | 40.48073 | 14.35337 | 19979 ft | 284 kts | 348° |
| 2026-05-04 20:29 | 40.50024 | 14.34985 | 19657 ft | 283 kts | 348° |
| 2026-05-04 20:29 | 40.51968 | 14.34636 | 19345 ft | 281 kts | 348° |
| 2026-05-04 20:30 | 40.53904 | 14.34286 | 19038 ft | 280 kts | 349° |
| 2026-05-04 20:30 | 40.55851 | 14.34206 | 18735 ft | 282 kts | 2° |
| 2026-05-04 20:30 | 40.57779 | 14.34750 | 18423 ft | 285 kts | 16° |
| 2026-05-04 20:30 | 40.59568 | 14.35896 | 18071 ft | 288 kts | 30° |
| 2026-05-04 20:31 | 40.61114 | 14.37586 | 17745 ft | 291 kts | 44° |
| 2026-05-04 20:31 | 40.62480 | 14.39549 | 17423 ft | 290 kts | 44° |
| 2026-05-04 20:31 | 40.63843 | 14.41500 | 17121 ft | 289 kts | 44° |
| 2026-05-04 20:31 | 40.65201 | 14.43440 | 16832 ft | 287 kts | 44° |
| 2026-05-04 20:32 | 40.66552 | 14.45367 | 16563 ft | 285 kts | 44° |
| 2026-05-04 20:32 | 40.67889 | 14.47274 | 16310 ft | 283 kts | 44° |
| 2026-05-04 20:32 | 40.69218 | 14.49173 | 16038 ft | 281 kts | 44° |
| 2026-05-04 20:32 | 40.70530 | 14.51081 | 15766 ft | 280 kts | 45° |
| 2026-05-04 20:33 | 40.71813 | 14.52996 | 15489 ft | 278 kts | 46° |
| 2026-05-04 20:33 | 40.73086 | 14.54911 | 15225 ft | 277 kts | 46° |
| 2026-05-04 20:33 | 40.74346 | 14.56816 | 14960 ft | 275 kts | 46° |
| 2026-05-04 20:33 | 40.75606 | 14.58717 | 14701 ft | 274 kts | 46° |
| 2026-05-04 20:34 | 40.76855 | 14.60599 | 14435 ft | 272 kts | 46° |
| 2026-05-04 20:34 | 40.78110 | 14.62459 | 14172 ft | 270 kts | 42° |
| 2026-05-04 20:34 | 40.79629 | 14.63819 | 13905 ft | 263 kts | 19° |
| 2026-05-04 20:34 | 40.81391 | 14.64276 | 13568 ft | 258 kts | 356° |
| 2026-05-04 20:35 | 40.83125 | 14.63805 | 13221 ft | 255 kts | 334° |
| 2026-05-04 20:35 | 40.84655 | 14.62639 | 12876 ft | 255 kts | 327° |
| 2026-05-04 20:35 | 40.86161 | 14.61398 | 12529 ft | 255 kts | 327° |
| 2026-05-04 20:35 | 40.87681 | 14.60176 | 12196 ft | 255 kts | 332° |
| 2026-05-04 20:36 | 40.89394 | 14.59644 | 11865 ft | 257 kts | 2° |
| 2026-05-04 20:36 | 40.91093 | 14.60321 | 11511 ft | 259 kts | 33° |
| 2026-05-04 20:36 | 40.92332 | 14.62022 | 11143 ft | 260 kts | 57° |
| 2026-05-04 20:36 | 40.93291 | 14.64062 | 10772 ft | 262 kts | 58° |
| 2026-05-04 20:37 | 40.94247 | 14.66121 | 10456 ft | 262 kts | 58° |
| 2026-05-04 20:37 | 40.95192 | 14.68162 | 10161 ft | 260 kts | 59° |
| 2026-05-04 20:37 | 40.96141 | 14.70205 | 9842 ft | 259 kts | 59° |
| 2026-05-04 20:37 | 40.97085 | 14.72234 | 9512 ft | 258 kts | 58° |
| 2026-05-04 20:38 | 40.98023 | 14.74245 | 9187 ft | 256 kts | 59° |
| 2026-05-04 20:38 | 40.98961 | 14.76250 | 8860 ft | 255 kts | 59° |
| 2026-05-04 20:38 | 40.99893 | 14.78244 | 8547 ft | 254 kts | 59° |
| 2026-05-04 20:38 | 41.00819 | 14.80224 | 8229 ft | 252 kts | 59° |
| 2026-05-04 20:39 | 41.01739 | 14.82193 | 7922 ft | 251 kts | 59° |
| 2026-05-04 20:39 | 41.02655 | 14.84153 | 7638 ft | 250 kts | 59° |
| 2026-05-04 20:39 | 41.03744 | 14.85919 | 7324 ft | 248 kts | 35° |
| 2026-05-04 20:39 | 41.05321 | 14.86733 | 6985 ft | 245 kts | 2° |
| 2026-05-04 20:40 | 41.06962 | 14.86344 | 6646 ft | 240 kts | 331° |
| 2026-05-04 20:40 | 41.08399 | 14.85213 | 6281 ft | 241 kts | 326° |
| 2026-05-04 20:40 | 41.09821 | 14.84045 | 5971 ft | 239 kts | 326° |
| 2026-05-04 20:40 | 41.11155 | 14.82770 | 5854 ft | 236 kts | 309° |
| 2026-05-04 20:41 | 41.11899 | 14.80881 | 5710 ft | 231 kts | 278° |
| 2026-05-04 20:41 | 41.11813 | 14.78797 | 5598 ft | 227 kts | 248° |
| 2026-05-04 20:41 | 41.11063 | 14.76979 | 5472 ft | 226 kts | 236° |
| 2026-05-04 20:41 | 41.10223 | 14.75204 | 5347 ft | 226 kts | 237° |
| 2026-05-04 20:42 | 41.09389 | 14.73437 | 5222 ft | 226 kts | 237° |
| 2026-05-04 20:42 | 41.08560 | 14.71671 | 5101 ft | 226 kts | 237° |
| 2026-05-04 20:42 | 41.07735 | 14.69910 | 4970 ft | 224 kts | 237° |
| 2026-05-04 20:42 | 41.06931 | 14.68191 | 4958 ft | 216 kts | 237° |
| 2026-05-04 20:43 | 41.06153 | 14.66527 | 4999 ft | 205 kts | 237° |
| 2026-05-04 20:43 | 41.05417 | 14.64951 | 5002 ft | 200 kts | 237° |
| 2026-05-04 20:43 | 41.04685 | 14.63382 | 5003 ft | 200 kts | 237° |
| 2026-05-04 20:43 | 41.03953 | 14.61814 | 5006 ft | 201 kts | 237° |
| 2026-05-04 20:44 | 41.03210 | 14.60222 | 5003 ft | 200 kts | 237° |
| 2026-05-04 20:44 | 41.02491 | 14.58682 | 4763 ft | 199 kts | 237° |
| 2026-05-04 20:44 | 41.01764 | 14.57126 | 4438 ft | 199 kts | 237° |
| 2026-05-04 20:44 | 41.01037 | 14.55571 | 4131 ft | 199 kts | 237° |
| 2026-05-04 20:45 | 41.00311 | 14.54020 | 3875 ft | 197 kts | 237° |
| 2026-05-04 20:45 | 40.99578 | 14.52453 | 3809 ft | 197 kts | 237° |
| 2026-05-04 20:45 | 40.98853 | 14.50904 | 3808 ft | 199 kts | 237° |
| 2026-05-04 20:45 | 40.98124 | 14.49347 | 3811 ft | 199 kts | 237° |
| 2026-05-04 20:46 | 40.97407 | 14.47817 | 3700 ft | 197 kts | 237° |
| 2026-05-04 20:46 | 40.96679 | 14.46262 | 3477 ft | 195 kts | 237° |
| 2026-05-04 20:46 | 40.95985 | 14.44780 | 3373 ft | 183 kts | 237° |
| 2026-05-04 20:46 | 40.95339 | 14.43402 | 3226 ft | 170 kts | 237° |
| 2026-05-04 20:47 | 40.94764 | 14.42161 | 3115 ft | 152 kts | 238° |
| 2026-05-04 20:47 | 40.94230 | 14.40994 | 2797 ft | 147 kts | 238° |
| 2026-05-04 20:47 | 40.93683 | 14.39824 | 2371 ft | 149 kts | 238° |
| 2026-05-04 20:47 | 40.93145 | 14.38642 | 1946 ft | 151 kts | 239° |
| 2026-05-04 20:48 | 40.92603 | 14.37468 | 1595 ft | 148 kts | 239° |
| 2026-05-04 20:48 | 40.92059 | 14.36338 | 1299 ft | 144 kts | 238° |
| 2026-05-04 20:48 | 40.91529 | 14.35253 | 1164 ft | 139 kts | 237° |
| 2026-05-04 20:48 | 40.90998 | 14.34142 | 1021 ft | 143 kts | 239° |
| 2026-05-04 20:49 | 40.90478 | 14.33033 | 790 ft | 142 kts | 238° |
| 2026-05-04 20:49 | 40.89955 | 14.31939 | 633 ft | 141 kts | 239° |
| 2026-05-04 20:49 | 40.89433 | 14.30840 | 358 ft | 140 kts | 239° |
| 2026-05-04 20:49 | 40.88927 | 14.29771 | 250 ft | 127 kts | 238° |
| 2026-05-04 20:50 | 40.88553 | 14.28966 | 270 ft | 79 kts | 238° |
| 2026-05-04 20:50 | 40.88328 | 14.28509 | 281 ft | 32 kts | 225° |
| 2026-05-04 20:50 | 40.88225 | 14.28420 | 288 ft | 15 kts | 213° |
| 2026-05-04 20:50 | 40.88150 | 14.28365 | 286 ft | 11 kts | 206° |
| 2026-05-04 20:51 | 40.88103 | 14.28333 | 289 ft | 0 kts | 206° |
| 2026-05-04 20:52 | 40.88092 | 14.28326 | 287 ft | 4 kts | 206° |
| 2026-05-04 20:52 | 40.88060 | 14.28338 | 290 ft | 7 kts | 121° |
| 2026-05-04 20:52 | 40.88053 | 14.28431 | 286 ft | 13 kts | 97° |
| 2026-05-04 20:52 | 40.88024 | 14.28523 | 285 ft | 8 kts | 178° |
| 2026-05-04 20:53 | 40.87965 | 14.28490 | 286 ft | 10 kts | 218° |
| 2026-05-04 20:53 | 40.87938 | 14.28405 | 288 ft | 11 kts | 275° |
| 2026-05-04 20:53 | 40.87949 | 14.28293 | 290 ft | 13 kts | 277° |
| 2026-05-04 20:53 | 40.87962 | 14.28162 | 292 ft | 15 kts | 276° |
| 2026-05-04 20:54 | 40.87909 | 14.28039 | 299 ft | 16 kts | 231° |
| 2026-05-04 20:54 | 40.87843 | 14.27948 | 298 ft | 3 kts | 174° |
| 2026-05-04 20:54 | 40.87827 | 14.27956 | 297 ft | 2 kts | 158° |
| 2026-05-04 20:54 | 40.87821 | 14.27962 | 301 ft | 1 kts | 143° |
| 2026-05-04 20:55 | 40.87800 | 14.27984 | 297 ft | 5 kts | 141° |
| 2026-05-04 20:55 | 40.87775 | 14.28010 | 297 ft | 3 kts | 141° |
| 2026-05-04 20:55 | 40.87774 | 14.28010 | 297 ft | 0 kts | 141° |